Time;durP1;ratioP1;P1;durP2;ratioP2;P2;SDS_P1;SDS_P2;PMS_P1;PMS_P2;Temp;Humidity;BMP_temperature;BMP_pressure;BME280_temperature;BME280_humidity;BME280_pressure;Samples;Min_cycle;Max_cycle;Signal;HPM_P1;HPM_P2
2021/04/02 00:00:15;;;;;;;78.90;29.18;;;;;;;3.97;69.27;99770.38;1793423;80;21854;-79
2021/04/02 00:03:38;;;;;;;63.28;27.00;;;;;;;3.90;69.70;99766.03;1788531;78;21298;-79
2021/04/02 00:06:44;;;;;;;63.65;26.37;;;;;;;3.85;70.16;99763.77;1793406;78;21184;-79
2021/04/02 00:09:50;;;;;;;51.88;23.83;;;;;;;3.82;69.91;99755.11;1793966;80;21129;-79
2021/04/02 00:12:56;;;;;;;48.50;20.65;;;;;;;3.81;69.57;99755.62;1793962;78;21808;-79
2021/04/02 00:16:01;;;;;;;53.33;20.85;;;;;;;3.84;69.16;99752.59;1793890;80;21291;-79
2021/04/02 00:19:06;;;;;;;40.10;19.87;;;;;;;3.87;69.17;99747.91;1794038;80;21833;-79
2021/04/02 00:22:11;;;;;;;42.53;20.12;;;;;;;3.90;68.81;99744.39;1794013;78;21866;-78
2021/04/02 00:25:18;;;;;;;55.73;22.02;;;;;;;3.92;68.57;99748.32;1793940;80;21647;-79
2021/04/02 00:28:24;;;;;;;54.38;21.70;;;;;;;3.93;68.50;99741.91;1794149;78;21781;-79
2021/04/02 00:31:29;;;;;;;50.33;20.00;;;;;;;3.92;68.83;99739.70;1793930;80;21212;-79
2021/04/02 00:34:35;;;;;;;50.88;23.95;;;;;;;3.89;69.24;99728.31;1794109;80;21267;-79
2021/04/02 00:37:40;;;;;;;57.90;22.75;;;;;;;3.83;69.29;99737.38;1794043;78;21303;-79
2021/04/02 00:40:55;;;;;;;51.88;23.35;;;;;;;3.79;69.54;99730.55;1793977;80;21261;-79
2021/04/02 00:44:02;;;;;;;56.80;21.87;;;;;;;3.75;69.75;99730.48;1794194;80;21710;-79
2021/04/02 00:47:07;;;;;;;49.35;23.38;;;;;;;3.72;69.75;99715.92;1794063;78;21306;-80
2021/04/02 00:50:19;;;;;;;48.15;22.48;;;;;;;3.71;69.63;99724.16;1794091;80;21727;-79
2021/04/02 00:53:25;;;;;;;44.95;20.30;;;;;;;3.71;69.66;99712.84;1793964;78;21821;-79
2021/04/02 00:56:30;;;;;;;45.50;20.43;;;;;;;3.66;69.70;99711.08;1793884;80;21278;-80
2021/04/02 00:59:35;;;;;;;56.60;25.88;;;;;;;3.59;69.42;99706.77;1792946;80;21192;-78
2021/04/02 01:02:40;;;;;;;53.80;24.52;;;;;;;3.56;69.28;99701.64;1792475;79;21152;-79
2021/04/02 01:05:50;;;;;;;57.33;27.67;;;;;;;3.56;69.15;99700.78;1793822;80;21271;-80
2021/04/02 01:08:57;;;;;;;53.65;25.57;;;;;;;3.57;69.06;99701.13;1787567;78;21619;-80
2021/04/02 01:12:04;;;;;;;60.95;27.93;;;;;;;3.54;69.03;99694.69;1787642;79;21330;-79
2021/04/02 01:15:09;;;;;;;49.05;25.25;;;;;;;3.51;69.19;99691.76;1787706;80;21184;-79
2021/04/02 01:18:26;;;;;;;49.48;22.60;;;;;;;3.57;69.35;99687.61;1787540;78;21311;-80
2021/04/02 01:21:38;;;;;;;48.42;21.87;;;;;;;3.58;69.77;99683.43;1787631;80;21267;-79
2021/04/02 01:25:11;;;;;;;46.58;21.65;;;;;;;3.55;70.22;99681.01;1787696;80;21153;-80
2021/04/02 01:28:46;;;;;;;44.83;20.70;;;;;;;3.53;70.47;99675.41;1788487;79;21279;-79
2021/04/02 01:32:02;;;;;;;44.00;20.65;;;;;;;3.48;70.95;99672.27;1787556;79;21168;-79
2021/04/02 01:35:34;;;;;;;40.30;20.08;;;;;;;3.39;71.42;99673.14;1787527;80;21290;-79
2021/04/02 01:38:44;;;;;;;46.23;20.27;;;;;;;3.35;71.74;99666.34;1787613;78;21314;-80
2021/04/02 01:41:50;;;;;;;53.08;22.48;;;;;;;3.32;72.10;99664.77;1787451;79;21354;-79
2021/04/02 01:44:56;;;;;;;52.75;23.45;;;;;;;3.30;72.43;99661.38;1787654;80;21273;-79
2021/04/02 01:48:02;;;;;;;52.75;23.10;;;;;;;3.28;72.47;99658.80;1787625;79;21161;-79
2021/04/02 01:51:08;;;;;;;42.95;22.52;;;;;;;3.25;72.44;99656.41;1787666;80;21264;-79
2021/04/02 01:54:13;;;;;;;51.58;23.27;;;;;;;3.24;72.49;99652.48;1772649;80;21279;-79
2021/04/02 01:57:20;;;;;;;55.50;25.10;;;;;;;3.21;72.47;99652.28;1787597;78;21299;-79
2021/04/02 02:00:38;;;;;;;52.93;23.87;;;;;;;3.18;72.48;99653.91;1787770;80;21786;-79
2021/04/02 02:03:46;;;;;;;57.43;24.67;;;;;;;3.17;72.64;99648.66;1787614;79;21165;-79
2021/04/02 02:06:56;;;;;;;62.27;25.08;;;;;;;3.14;72.68;99648.44;1787573;79;21323;-79
2021/04/02 02:10:04;;;;;;;48.80;23.20;;;;;;;3.14;72.79;99645.74;1790042;80;21167;-80
2021/04/02 02:13:11;;;;;;;65.15;24.98;;;;;;;3.16;72.86;99645.62;1790843;78;21329;-80
2021/04/02 02:16:20;;;;;;;48.25;23.38;;;;;;;3.15;72.88;99646.59;1790822;80;21143;-79
2021/04/02 02:19:29;;;;;;;53.75;24.72;;;;;;;3.14;72.70;99646.24;1790973;80;21832;-79
2021/04/02 02:22:38;;;;;;;53.83;26.00;;;;;;;3.11;72.70;99637.09;1769071;80;21187;-79
2021/04/02 02:25:43;;;;;;;48.23;23.95;;;;;;;3.08;72.71;99633.67;1790875;80;21839;-79
2021/04/02 02:28:49;;;;;;;48.80;24.60;;;;;;;3.09;72.68;99637.22;1790938;78;21836;-79
2021/04/02 02:31:56;;;;;;;58.52;24.90;;;;;;;3.10;72.72;99634.86;1790971;78;21364;-79
2021/04/02 02:35:04;;;;;;;51.35;24.80;;;;;;;3.08;72.61;99636.88;1790972;80;21289;-79
2021/04/02 02:38:10;;;;;;;52.83;24.57;;;;;;;3.05;72.51;99632.59;1790999;78;21155;-80
2021/04/02 02:41:16;;;;;;;49.90;25.32;;;;;;;3.02;72.42;99634.26;1790942;80;21182;-79
2021/04/02 02:44:23;;;;;;;57.70;27.15;;;;;;;3.00;72.49;99632.68;1790967;80;21262;-79
2021/04/02 02:47:29;;;;;;;52.27;25.77;;;;;;;2.97;72.73;99634.34;1790943;78;21167;-79
2021/04/02 02:50:40;;;;;;;62.48;30.92;;;;;;;2.92;72.89;99629.88;1790837;80;21286;-79
2021/04/02 02:53:46;;;;;;;59.70;28.47;;;;;;;2.90;72.94;99634.55;1790711;78;21298;-78
2021/04/02 02:56:55;;;;;;;62.38;28.75;;;;;;;2.88;72.83;99630.65;1790940;78;21140;-79
2021/04/02 03:00:00;;;;;;;60.55;29.50;;;;;;;2.89;72.65;99640.95;1790883;80;21258;-79
2021/04/02 03:03:07;;;;;;;67.85;30.55;;;;;;;2.84;72.50;99627.03;1790874;79;21302;-79
2021/04/02 03:06:15;;;;;;;61.20;31.70;;;;;;;2.76;72.51;99623.17;1790803;80;21365;-79
2021/04/02 03:09:23;;;;;;;64.05;27.90;;;;;;;2.71;72.71;99621.91;1791905;78;21290;-80
2021/04/02 03:12:28;;;;;;;66.92;30.62;;;;;;;2.69;72.89;99623.41;1793908;78;21779;-79
2021/04/02 03:15:34;;;;;;;70.42;31.60;;;;;;;2.66;72.75;99622.84;1793978;80;21271;-79
2021/04/02 03:18:41;;;;;;;72.03;34.63;;;;;;;2.62;72.97;99622.77;1793860;78;21808;-80
2021/04/02 03:21:46;;;;;;;73.75;38.67;;;;;;;2.59;73.19;99615.81;1794049;79;21267;-79
2021/04/02 03:24:54;;;;;;;76.02;35.75;;;;;;;2.62;73.41;99616.86;1794037;80;21183;-79
2021/04/02 03:28:01;;;;;;;75.22;34.15;;;;;;;2.68;73.56;99616.78;1793043;79;21296;-78
2021/04/02 03:31:09;;;;;;;80.65;38.50;;;;;;;2.73;73.66;99607.28;1792326;80;21302;-79
2021/04/02 03:34:16;;;;;;;77.58;37.17;;;;;;;2.79;73.55;99605.85;1793383;80;22199;-79
2021/04/02 03:37:22;;;;;;;76.07;37.40;;;;;;;2.83;73.64;99609.97;1793568;79;21167;-80
2021/04/02 03:40:31;;;;;;;74.32;36.33;;;;;;;2.89;73.62;99613.44;1793757;80;21140;-80
2021/04/02 03:43:37;;;;;;;76.80;37.83;;;;;;;2.95;73.37;99610.66;1793864;78;21233;-79
2021/04/02 03:46:43;;;;;;;80.42;38.38;;;;;;;2.97;73.20;99613.58;1794033;78;21180;-79
2021/04/02 03:49:48;;;;;;;80.90;37.28;;;;;;;2.99;73.14;99609.38;1793804;80;21306;-79
2021/04/02 03:53:19;;;;;;;68.52;37.42;;;;;;;3.05;73.21;99607.42;1801696;78;21307;-80
2021/04/02 03:56:28;;;;;;;79.77;35.35;;;;;;;3.14;73.38;99603.86;1794077;80;21327;-79
2021/04/02 03:59:34;;;;;;;76.30;38.83;;;;;;;3.26;73.36;99606.75;1794059;80;21263;-78
2021/04/02 04:02:40;;;;;;;83.58;40.25;;;;;;;3.32;73.37;99606.16;1793463;79;21252;-79
2021/04/02 04:05:45;;;;;;;77.00;37.85;;;;;;;3.42;73.52;99600.71;1793985;80;21288;-79
2021/04/02 04:08:51;;;;;;;93.45;41.63;;;;;;;3.52;73.70;99597.97;1794083;78;21299;-79
2021/04/02 04:11:57;;;;;;;87.00;39.80;;;;;;;3.63;73.81;99597.80;1791598;79;21168;-80
2021/04/02 04:15:05;;;;;;;94.80;43.08;;;;;;;3.77;74.01;99595.95;1793983;80;21274;-80
2021/04/02 04:18:10;;;;;;;91.50;40.95;;;;;;;3.94;74.15;99592.07;1793960;78;21853;-80
2021/04/02 04:21:17;;;;;;;130.07;56.00;;;;;;;4.11;74.36;99592.61;1793969;80;21271;-79
2021/04/02 04:24:27;;;;;;;132.32;62.27;;;;;;;4.28;74.42;99591.80;1793980;80;21798;-79
2021/04/02 04:27:33;;;;;;;134.78;60.60;;;;;;;4.44;74.48;99588.89;1794069;78;21326;-80
2021/04/02 04:30:46;;;;;;;148.30;68.28;;;;;;;4.57;74.52;99590.20;1793901;80;21145;-79
2021/04/02 04:33:52;;;;;;;102.00;46.10;;;;;;;4.76;74.28;99590.55;1793728;78;21295;-80
2021/04/02 04:36:58;;;;;;;90.55;39.80;;;;;;;4.95;74.03;99587.30;1793732;78;21176;-80
2021/04/02 04:40:02;;;;;;;82.82;38.63;;;;;;;5.10;73.93;99594.70;1793831;80;21842;-78
2021/04/02 04:43:09;;;;;;;73.00;38.25;;;;;;;5.22;73.88;99585.81;1792926;79;21188;-78
2021/04/02 04:46:13;;;;;;;79.15;37.65;;;;;;;5.33;73.90;99584.17;1794036;80;21318;-80
2021/04/02 04:49:19;;;;;;;73.72;36.53;;;;;;;5.45;74.04;99589.31;1793873;80;21311;-79
2021/04/02 04:52:26;;;;;;;69.67;38.28;;;;;;;5.57;74.07;99590.74;1793527;79;21314;-80
2021/04/02 04:55:31;;;;;;;67.47;31.93;;;;;;;5.70;74.13;99591.16;1793755;80;21129;-80
2021/04/02 04:58:39;;;;;;;75.92;38.00;;;;;;;5.85;74.14;99590.88;1791259;78;21795;-80
2021/04/02 05:01:50;;;;;;;88.33;37.30;;;;;;;5.96;74.27;99582.96;1777334;80;21282;-80
2021/04/02 05:04:55;;;;;;;83.82;39.38;;;;;;;6.11;74.46;99579.95;1739201;82;21207;-80
2021/04/02 05:08:02;;;;;;;101.80;42.53;;;;;;;6.26;74.37;99577.47;1742175;80;21235;-81
2021/04/02 05:11:08;;;;;;;95.00;43.48;;;;;;;6.35;74.45;99579.19;1762138;80;21477;-80
2021/04/02 05:14:15;;;;;;;90.45;41.35;;;;;;;6.51;74.49;99573.42;1778322;79;21967;-80
2021/04/02 05:17:21;;;;;;;84.28;36.80;;;;;;;6.70;74.55;99574.45;1782136;80;21741;-80
2021/04/02 05:20:27;;;;;;;75.32;37.13;;;;;;;6.89;74.59;99571.39;1752051;81;21276;-80
2021/04/02 05:23:32;;;;;;;78.10;35.98;;;;;;;7.03;74.50;99572.58;1765461;80;22132;-81
2021/04/02 05:26:39;;;;;;;59.67;31.85;;;;;;;7.17;74.70;99570.52;1774397;80;21244;-80
2021/04/02 05:29:43;;;;;;;62.67;30.37;;;;;;;7.36;74.69;99572.52;1754526;80;21326;-80
2021/04/02 05:32:49;;;;;;;59.23;28.47;;;;;;;7.51;74.50;99568.57;1782390;79;21167;-80
2021/04/02 05:35:54;;;;;;;55.85;29.35;;;;;;;7.63;74.15;99563.95;1761982;79;21607;-80
2021/04/02 05:39:00;;;;;;;52.75;26.87;;;;;;;7.77;73.85;99565.60;1782943;80;21737;-81
2021/04/02 05:42:12;;;;;;;51.60;28.73;;;;;;;7.90;73.60;99557.69;1780681;79;21188;-80
2021/04/02 05:45:21;;;;;;;57.05;27.65;;;;;;;8.05;73.81;99553.73;1781844;79;21861;-80
2021/04/02 05:48:27;;;;;;;49.55;26.85;;;;;;;8.17;73.58;99559.09;1785248;80;21160;-80
2021/04/02 05:51:35;;;;;;;51.50;26.15;;;;;;;8.32;73.32;99563.25;1786074;79;21250;-80
2021/04/02 05:54:47;;;;;;;48.63;27.73;;;;;;;8.46;73.09;99558.42;1778205;79;21258;-80
2021/04/02 05:57:55;;;;;;;53.73;27.40;;;;;;;8.60;72.96;99565.81;1780993;79;21290;-80
2021/04/02 06:01:01;;;;;;;60.43;28.45;;;;;;;8.80;72.82;99563.95;1776042;79;21247;-80
2021/04/02 06:04:07;;;;;;;49.25;25.40;;;;;;;9.02;72.50;99569.06;1766432;80;21279;-80
2021/04/02 06:07:13;;;;;;;43.78;24.50;;;;;;;9.22;71.77;99562.04;1785398;80;21769;-80
2021/04/02 06:10:20;;;;;;;51.98;26.40;;;;;;;9.39;71.34;99567.67;1791254;80;21154;-80
2021/04/02 06:13:19;;;;;;;54.03;26.27;;;;;;;9.55;71.02;99559.84;1790294;78;21330;-81
2021/04/02 06:16:11;;;;;;;48.05;27.37;;;;;;;9.73;70.75;99562.17;1768846;79;21808;-80
2021/04/02 06:19:18;;;;;;;53.52;27.73;;;;;;;9.88;69.74;99563.03;1784446;78;21266;-80
2021/04/02 06:22:23;;;;;;;55.30;28.70;;;;;;;10.03;69.06;99566.26;1778469;79;21278;-80
2021/04/02 06:25:30;;;;;;;52.93;26.87;;;;;;;10.15;68.76;99561.98;1786574;78;21302;-81
2021/04/02 06:28:45;;;;;;;48.40;27.22;;;;;;;10.30;68.31;99557.88;1775096;79;21326;-80
2021/04/02 06:31:51;;;;;;;48.40;27.77;;;;;;;10.44;67.76;99556.48;1753691;79;21345;-80
2021/04/02 06:34:56;;;;;;;51.13;27.87;;;;;;;10.62;67.81;99553.80;1774929;79;21798;-81
2021/04/02 06:38:04;;;;;;;53.95;28.50;;;;;;;10.81;67.49;99551.78;1774291;79;21286;-80
2021/04/02 06:41:12;;;;;;;42.38;27.17;;;;;;;10.97;67.36;99554.26;1777340;79;22023;-80
2021/04/02 06:44:19;;;;;;;52.15;28.00;;;;;;;11.13;66.48;99553.64;1756099;80;21789;-81
2021/04/02 06:47:24;;;;;;;59.03;31.62;;;;;;;11.30;65.73;99552.31;1766707;79;21279;-80
2021/04/02 06:50:31;;;;;;;48.33;28.45;;;;;;;11.43;65.42;99541.95;1741548;81;21373;-81
2021/04/02 06:53:39;;;;;;;54.48;28.92;;;;;;;11.56;64.84;99537.09;1771071;80;21959;-81
2021/04/02 06:56:44;;;;;;;47.10;30.00;;;;;;;11.64;64.55;99535.04;1770968;80;21128;-81
2021/04/02 06:59:49;;;;;;;47.60;25.88;;;;;;;11.76;64.35;99528.45;1770982;80;21264;-81
2021/04/02 07:02:54;;;;;;;46.77;26.75;;;;;;;11.89;63.58;99535.41;1766209;80;21283;-81
2021/04/02 07:05:59;;;;;;;48.23;28.42;;;;;;;11.96;63.08;99529.97;1769977;80;21749;-81
2021/04/02 07:09:06;;;;;;;47.80;26.82;;;;;;;12.02;62.93;99527.25;1771735;80;21710;-81
2021/04/02 07:12:14;;;;;;;47.75;25.02;;;;;;;12.14;62.67;99519.79;1786308;78;21433;-81
2021/04/02 07:15:21;;;;;;;47.33;28.62;;;;;;;12.28;62.77;99520.19;1735791;80;21168;-81
2021/04/02 07:18:27;;;;;;;44.18;25.02;;;;;;;12.42;62.13;99513.68;1753057;80;21269;-80
2021/04/02 07:21:32;;;;;;;44.03;24.82;;;;;;;12.59;61.63;99520.97;1735110;82;21302;-81
2021/04/02 07:24:38;;;;;;;47.10;24.02;;;;;;;12.71;61.54;99513.83;1744894;80;21259;-81
2021/04/02 07:27:44;;;;;;;46.13;24.52;;;;;;;12.86;61.00;99510.88;1732615;81;21800;-81
2021/04/02 07:30:50;;;;;;;44.90;25.08;;;;;;;13.00;60.58;99505.70;1730212;81;21358;-81
2021/04/02 07:33:56;;;;;;;48.58;23.87;;;;;;;13.17;60.52;99506.63;1736571;81;21265;-81
2021/04/02 07:37:02;;;;;;;30.60;20.75;;;;;;;13.34;60.05;99499.68;1726812;82;21219;-81
2021/04/02 07:40:07;;;;;;;41.42;21.05;;;;;;;13.50;58.70;99501.98;1723142;81;21789;-81
2021/04/02 07:43:15;;;;;;;40.23;22.62;;;;;;;13.64;57.89;99493.69;1722496;81;21140;-81
2021/04/02 07:46:24;;;;;;;38.50;21.12;;;;;;;13.74;57.03;99492.73;1742245;81;21847;-81
2021/04/02 07:49:29;;;;;;;38.95;19.50;;;;;;;13.82;56.30;99485.59;1739695;81;21306;-81
2021/04/02 07:52:49;;;;;;;39.30;20.27;;;;;;;13.94;55.23;99475.61;1735222;82;21381;-81
2021/04/02 07:56:17;;;;;;;28.85;17.40;;;;;;;14.04;54.74;99471.86;1737123;81;21735;-81
2021/04/02 07:59:22;;;;;;;35.45;18.17;;;;;;;14.13;54.38;99475.20;1727141;81;21840;-81
2021/04/02 08:02:38;;;;;;;32.30;16.48;;;;;;;14.16;53.64;99477.52;1725479;81;21180;-81
2021/04/02 08:05:48;;;;;;;29.52;16.42;;;;;;;14.15;53.01;99468.09;1732430;81;21817;-81
2021/04/02 08:08:56;;;;;;;28.95;18.15;;;;;;;14.19;53.49;99475.69;1744733;81;21165;-82
2021/04/02 08:12:06;;;;;;;31.85;16.67;;;;;;;14.25;53.55;99469.83;1750090;80;21508;-81
2021/04/02 08:15:19;;;;;;;30.17;17.52;;;;;;;14.29;53.30;99463.67;1740429;80;21200;-79
2021/04/02 08:18:27;;;;;;;28.05;17.60;;;;;;;14.36;53.70;99469.69;1757033;80;21176;-79
2021/04/02 08:21:33;;;;;;;22.32;12.90;;;;;;;14.35;52.52;99468.84;1756764;80;21152;-80
2021/04/02 08:24:41;;;;;;;24.07;14.33;;;;;;;14.34;52.05;99465.76;1757674;80;21291;-81
2021/04/02 08:27:51;;;;;;;45.40;14.85;;;;;;;14.35;51.34;99455.09;1765497;80;21833;-81
2021/04/02 08:31:00;;;;;;;27.98;15.10;;;;;;;14.41;51.77;99454.73;1768317;80;21314;-79
2021/04/02 08:34:06;;;;;;;28.52;15.80;;;;;;;14.48;50.94;99456.38;1765926;80;21266;-79
2021/04/02 08:37:15;;;;;;;23.73;13.20;;;;;;;14.55;51.90;99453.06;1766578;80;21194;-79
2021/04/02 08:40:22;;;;;;;24.50;13.58;;;;;;;14.65;51.60;99460.83;1765476;80;21305;-79
2021/04/02 08:43:26;;;;;;;24.37;13.05;;;;;;;14.73;50.70;99449.55;1736102;80;21161;-80
2021/04/02 08:46:53;;;;;;;17.80;10.60;;;;;;;14.79;50.28;99451.94;1771596;79;21689;-80
2021/04/02 08:50:01;;;;;;;19.60;11.93;;;;;;;14.83;48.92;99450.42;1768155;80;21278;-80
2021/04/02 08:53:15;;;;;;;18.32;11.65;;;;;;;14.85;47.71;99444.67;1761420;80;21306;-80
2021/04/02 08:56:25;;;;;;;12.23;8.85;;;;;;;14.84;47.94;99438.33;1756779;80;21207;-80
2021/04/02 08:59:30;;;;;;;16.00;9.25;;;;;;;14.86;48.79;99433.42;1780391;79;21690;-79
2021/04/02 09:02:37;;;;;;;19.07;10.85;;;;;;;14.88;46.80;99442.33;1786834;78;21309;-79
2021/04/02 09:05:42;;;;;;;13.05;7.35;;;;;;;14.89;47.29;99441.78;1762209;80;21281;-79
2021/04/02 09:08:47;;;;;;;12.85;8.30;;;;;;;14.88;46.07;99431.31;1750135;80;21301;-79
2021/04/02 09:11:56;;;;;;;16.02;7.08;;;;;;;14.89;46.79;99427.48;1760603;80;21392;-79
2021/04/02 09:15:02;;;;;;;9.83;6.40;;;;;;;14.91;45.47;99423.95;1749787;80;21171;-80
2021/04/02 09:18:29;;;;;;;9.60;6.42;;;;;;;14.95;43.71;99422.98;1784522;79;21823;-79
2021/04/02 09:21:36;;;;;;;10.15;5.95;;;;;;;14.94;42.72;99430.40;1783470;80;21328;-79
2021/04/02 09:24:44;;;;;;;9.78;6.70;;;;;;;14.94;42.92;99427.64;1759778;79;21709;-80
2021/04/02 09:27:49;;;;;;;10.53;5.37;;;;;;;14.98;44.17;99421.16;1730380;81;21314;-79
2021/04/02 09:30:55;;;;;;;11.22;5.08;;;;;;;15.00;41.57;99408.83;1764630;80;21263;-78
2021/04/02 09:34:07;;;;;;;10.38;5.00;;;;;;;15.01;40.96;99411.08;1731964;80;21282;-80
2021/04/02 09:37:14;;;;;;;7.83;4.60;;;;;;;15.06;42.62;99410.70;1777299;79;21282;-80
2021/04/02 09:40:21;;;;;;;6.90;3.62;;;;;;;15.12;41.67;99414.98;1776975;79;21242;-80
2021/04/02 09:43:26;;;;;;;7.45;4.17;;;;;;;15.20;39.24;99411.95;1777028;79;21167;-80
2021/04/02 09:46:38;;;;;;;11.40;4.33;;;;;;;15.28;39.43;99401.98;1771023;79;21144;-80
2021/04/02 09:49:44;;;;;;;12.07;4.03;;;;;;;15.35;39.29;99406.89;1779586;79;21155;-80
2021/04/02 09:52:52;;;;;;;9.48;4.22;;;;;;;15.37;39.54;99395.64;1777358;79;21378;-80
2021/04/02 09:55:58;;;;;;;10.65;3.83;;;;;;;15.41;39.61;99395.48;1781918;79;21301;-80
2021/04/02 09:59:04;;;;;;;5.90;3.20;;;;;;;15.47;38.66;99389.05;1782764;80;21255;-80
2021/04/02 10:02:10;;;;;;;14.05;4.42;;;;;;;15.49;38.80;99388.30;1782023;80;21690;-80
2021/04/02 10:05:16;;;;;;;9.93;4.53;;;;;;;15.50;42.15;99394.94;1760371;80;21128;-80
2021/04/02 10:08:22;;;;;;;7.85;3.98;;;;;;;15.53;40.60;99390.36;1781712;79;21286;-80
2021/04/02 10:11:32;;;;;;;10.08;5.35;;;;;;;15.47;41.88;99387.66;1771987;80;21278;-80
2021/04/02 10:14:38;;;;;;;8.95;5.17;;;;;;;15.43;42.88;99387.81;1781491;80;21128;-80
2021/04/02 10:17:43;;;;;;;11.10;5.37;;;;;;;15.42;40.49;99394.41;1770596;80;21261;-80
2021/04/02 10:20:50;;;;;;;11.00;6.40;;;;;;;15.40;42.12;99383.63;1768252;80;21314;-80
2021/04/02 10:23:56;;;;;;;9.45;5.30;;;;;;;15.47;42.07;99378.86;1768156;81;21647;-80
2021/04/02 10:27:01;;;;;;;14.80;6.00;;;;;;;15.62;42.43;99379.00;1771468;81;21280;-80
2021/04/02 10:30:07;;;;;;;10.43;5.80;;;;;;;15.74;42.06;99371.67;1774564;81;21212;-80
2021/04/02 10:33:12;;;;;;;9.13;5.00;;;;;;;15.87;41.21;99381.14;1795828;79;21243;-80
2021/04/02 10:36:18;;;;;;;9.00;5.33;;;;;;;15.98;39.60;99377.58;1792111;79;21314;-80
2021/04/02 10:39:24;;;;;;;8.40;4.60;;;;;;;16.07;38.44;99374.80;1774438;79;21243;-80
2021/04/02 10:42:30;;;;;;;14.05;5.33;;;;;;;16.02;39.00;99365.02;1776088;80;21298;-81
2021/04/02 10:45:36;;;;;;;7.75;5.47;;;;;;;16.06;40.11;99356.58;1771667;79;21808;-80
2021/04/02 10:48:43;;;;;;;12.82;5.40;;;;;;;16.24;40.60;99352.07;1776354;79;21317;-80
2021/04/02 10:51:50;;;;;;;10.80;5.30;;;;;;;16.37;39.55;99354.59;1778397;79;21305;-80
2021/04/02 10:54:56;;;;;;;12.30;5.12;;;;;;;16.41;38.46;99347.52;1768648;80;21298;-80
2021/04/02 10:58:05;;;;;;;9.68;4.20;;;;;;;16.38;37.76;99344.42;1770604;79;21809;-81
2021/04/02 11:01:11;;;;;;;10.40;4.22;;;;;;;16.24;35.87;99345.17;1787881;79;21303;-80
2021/04/02 11:04:15;;;;;;;9.75;3.50;;;;;;;16.09;36.41;99330.42;1787447;80;21814;-81
2021/04/02 11:07:20;;;;;;;9.88;2.87;;;;;;;15.98;35.53;99328.48;1761301;80;21314;-80
2021/04/02 11:10:27;;;;;;;10.95;3.20;;;;;;;15.85;34.31;99329.51;1776022;80;21804;-80
2021/04/02 11:13:33;;;;;;;8.33;3.17;;;;;;;15.73;35.20;99328.64;1777714;80;21625;-81
2021/04/02 11:16:37;;;;;;;10.05;3.50;;;;;;;15.69;33.71;99324.13;1769982;79;21156;-80
2021/04/02 11:19:44;;;;;;;4.72;3.05;;;;;;;15.65;35.10;99318.77;1782379;79;21693;-80
2021/04/02 11:22:49;;;;;;;6.20;2.72;;;;;;;15.66;35.31;99312.72;1777948;80;21884;-80
2021/04/02 11:25:55;;;;;;;14.25;3.02;;;;;;;15.62;30.90;99315.60;1773871;80;21155;-80
2021/04/02 11:29:00;;;;;;;8.18;2.52;;;;;;;15.53;32.80;99310.44;1790543;78;21148;-80
2021/04/02 11:32:06;;;;;;;12.43;2.98;;;;;;;15.49;33.02;99307.84;1790381;79;21828;-80
2021/04/02 11:35:14;;;;;;;11.18;2.20;;;;;;;15.51;33.12;99312.56;1794973;78;21176;-80
2021/04/02 11:38:20;;;;;;;6.30;2.90;;;;;;;15.56;32.06;99307.19;1795234;79;21302;-79
2021/04/02 11:41:25;;;;;;;6.50;2.90;;;;;;;15.59;31.77;99303.98;1797172;79;21227;-80
2021/04/02 11:44:31;;;;;;;8.75;4.15;;;;;;;15.64;33.29;99299.72;1793024;79;21286;-80
2021/04/02 11:47:37;;;;;;;5.15;2.90;;;;;;;15.68;33.43;99301.78;1785824;79;21360;-80
2021/04/02 11:50:43;;;;;;;13.68;3.35;;;;;;;15.66;33.45;99303.07;1795868;79;21247;-80
2021/04/02 11:53:48;;;;;;;12.75;3.33;;;;;;;15.65;33.37;99297.27;1796620;79;21146;-80
2021/04/02 11:56:55;;;;;;;9.35;2.80;;;;;;;15.62;33.64;99292.17;1771405;80;21324;-80
2021/04/02 12:00:00;;;;;;;5.47;3.00;;;;;;;15.62;34.31;99289.41;1771822;81;21235;-80
2021/04/02 12:03:05;;;;;;;8.45;3.72;;;;;;;15.62;33.88;99286.15;1773699;81;21319;-80
2021/04/02 12:06:13;;;;;;;7.70;3.62;;;;;;;15.63;35.51;99281.47;1769223;81;22147;-80
2021/04/02 12:09:18;;;;;;;9.13;4.03;;;;;;;15.62;36.37;99286.15;1796604;79;21175;-80
2021/04/02 12:12:24;;;;;;;8.73;4.62;;;;;;;15.58;36.98;99278.88;1796165;78;21255;-80
2021/04/02 12:15:30;;;;;;;9.35;4.53;;;;;;;15.56;36.89;99285.14;1792052;79;21137;-80
2021/04/02 12:18:35;;;;;;;7.00;3.80;;;;;;;15.53;37.79;99284.25;1791818;79;21295;-79
2021/04/02 12:21:41;;;;;;;9.33;4.80;;;;;;;15.50;38.23;99275.61;1776279;80;21887;-80
2021/04/02 12:24:47;;;;;;;9.08;5.87;;;;;;;15.49;39.42;99269.25;1776755;80;21258;-80
2021/04/02 12:27:53;;;;;;;6.78;4.20;;;;;;;15.46;38.35;99273.84;1777079;80;21254;-80
2021/04/02 12:31:01;;;;;;;9.13;4.70;;;;;;;15.41;37.40;99264.60;1778130;80;21312;-80
2021/04/02 12:34:06;;;;;;;6.97;3.95;;;;;;;15.38;39.25;99256.25;1779191;80;21143;-80
2021/04/02 12:37:13;;;;;;;16.45;6.40;;;;;;;15.36;39.16;99258.41;1774993;80;21884;-79
2021/04/02 12:40:21;;;;;;;9.60;5.25;;;;;;;15.34;39.87;99261.95;1776833;80;21847;-80
2021/04/02 12:43:26;;;;;;;7.30;4.78;;;;;;;15.32;40.53;99255.27;1778565;80;21314;-79
2021/04/02 12:46:32;;;;;;;6.58;4.22;;;;;;;15.33;40.93;99251.44;1780199;80;21273;-80
2021/04/02 12:49:37;;;;;;;8.68;5.00;;;;;;;15.33;40.92;99251.44;1775323;80;21238;-80
2021/04/02 12:52:45;;;;;;;10.50;4.28;;;;;;;15.31;41.92;99243.95;1774371;80;21262;-80
2021/04/02 12:55:51;;;;;;;9.28;4.35;;;;;;;15.30;42.13;99249.17;1782509;80;21256;-80
2021/04/02 12:58:56;;;;;;;9.93;4.60;;;;;;;15.32;43.01;99244.80;1762979;80;21196;-80
2021/04/02 13:02:06;;;;;;;14.50;4.90;;;;;;;15.31;42.78;99243.95;1781351;78;21329;-80
2021/04/02 13:05:12;;;;;;;12.05;5.70;;;;;;;15.32;43.29;99245.63;1769947;81;21505;-80
2021/04/02 13:08:18;;;;;;;12.82;4.58;;;;;;;15.29;42.82;99242.49;1766457;81;21816;-79
2021/04/02 13:11:24;;;;;;;12.80;5.30;;;;;;;15.24;43.29;99243.73;1760793;80;21718;-80
2021/04/02 13:14:31;;;;;;;15.50;5.83;;;;;;;15.22;43.24;99243.14;1778487;80;21289;-80
2021/04/02 13:17:38;;;;;;;11.93;5.67;;;;;;;15.13;43.36;99243.15;1778501;80;21343;-80
2021/04/02 13:20:44;;;;;;;9.40;5.42;;;;;;;15.05;43.95;99237.41;1788508;79;21302;-80
2021/04/02 13:23:56;;;;;;;11.88;5.72;;;;;;;15.01;44.04;99242.56;1799678;79;21194;-79
2021/04/02 13:27:04;;;;;;;13.78;6.78;;;;;;;14.98;44.04;99236.13;1793205;80;21219;-79
2021/04/02 13:30:15;;;;;;;10.48;5.72;;;;;;;14.94;44.41;99230.78;1776530;80;21306;-79
2021/04/02 13:33:21;;;;;;;16.32;5.60;;;;;;;14.91;43.48;99233.14;1770759;80;21144;-79
2021/04/02 13:36:28;;;;;;;11.73;5.53;;;;;;;14.85;43.72;99229.41;1765069;80;21273;-79
2021/04/02 13:39:34;;;;;;;14.53;5.42;;;;;;;14.82;44.03;99228.52;1800380;79;21160;-79
2021/04/02 13:42:39;;;;;;;11.20;4.30;;;;;;;14.77;44.70;99225.58;1800249;79;21302;-79
2021/04/02 13:45:46;;;;;;;21.57;5.00;;;;;;;14.76;44.95;99221.98;1798497;79;21289;-79
2021/04/02 13:48:51;;;;;;;11.05;4.22;;;;;;;14.75;45.29;99220.31;1783823;79;21216;-79
2021/04/02 13:51:56;;;;;;;10.50;5.03;;;;;;;14.69;44.44;99216.27;1790381;78;21907;-79
2021/04/02 13:55:01;;;;;;;7.37;3.50;;;;;;;14.59;45.17;99210.47;1777710;80;21811;-79
2021/04/02 13:58:07;;;;;;;15.13;3.90;;;;;;;14.50;44.38;99205.27;1746061;82;21727;-79
2021/04/02 14:01:12;;;;;;;14.73;3.95;;;;;;;14.44;44.21;99204.74;1762572;81;21358;-79
2021/04/02 14:04:17;;;;;;;13.20;3.80;;;;;;;14.35;44.40;99208.89;1761334;81;21326;-79
2021/04/02 14:07:21;;;;;;;12.53;4.03;;;;;;;14.28;43.99;99199.85;1747902;82;21389;-79
2021/04/02 14:10:38;;;;;;;13.88;3.90;;;;;;;14.21;44.56;99196.31;1774449;80;21278;-79
2021/04/02 14:13:44;;;;;;;10.93;4.22;;;;;;;14.14;44.66;99198.30;1762749;81;21239;-79
2021/04/02 14:16:51;;;;;;;12.88;4.60;;;;;;;14.06;45.52;99201.63;1761021;81;21231;-79
2021/04/02 14:19:56;;;;;;;12.40;4.22;;;;;;;14.03;44.82;99208.14;1795707;80;21384;-79
2021/04/02 14:23:03;;;;;;;9.28;4.00;;;;;;;13.98;45.42;99211.56;1772383;80;21287;-79
2021/04/02 14:26:09;;;;;;;11.00;3.85;;;;;;;13.93;44.75;99200.94;1774112;81;22044;-79
2021/04/02 14:29:15;;;;;;;9.38;4.28;;;;;;;13.83;44.85;99205.54;1774176;81;21362;-79